createdAt,value
2023-03-02T00:00:31.890Z,99850.78
2023-03-02T00:03:03.254Z,99845.84
2023-03-02T00:05:35.499Z,99845.06
2023-03-02T00:08:06.973Z,99851.77
2023-03-02T00:10:38.875Z,99843.42
2023-03-02T00:13:09.678Z,99841.96
2023-03-02T00:15:40.479Z,99837.42
2023-03-02T00:18:11.503Z,99837.30
2023-03-02T00:20:42.252Z,99840.90
2023-03-02T00:23:13.855Z,99838.27
2023-03-02T00:25:44.901Z,99837.98
2023-03-02T00:28:15.636Z,99835.15
2023-03-02T00:30:46.344Z,99837.35
2023-03-02T00:33:17.318Z,99833.27
2023-03-02T00:35:48.439Z,99837.27
2023-03-02T00:38:19.526Z,99837.84
2023-03-02T00:40:51.987Z,99839.75
2023-03-02T00:43:27.415Z,99839.80
2023-03-02T00:45:59.134Z,99844.20
2023-03-02T00:48:29.831Z,99843.52
2023-03-02T00:51:03.269Z,99841.61
2023-03-02T00:53:34.464Z,99836.83
2023-03-02T00:56:06.906Z,99829.92
2023-03-02T00:58:38.284Z,99826.73
2023-03-02T01:01:12.022Z,99803.50
2023-03-02T01:03:43.156Z,99820.25
2023-03-02T01:06:21.207Z,99819.36
2023-03-02T01:08:54.111Z,99820.98
2023-03-02T01:11:25.297Z,99818.52
2023-03-02T01:13:56.008Z,99817.58
2023-03-02T01:16:27.335Z,99813.96
2023-03-02T01:18:58.187Z,99813.12
2023-03-02T01:21:29.355Z,99808.41
2023-03-02T01:24:00.004Z,99808.70
2023-03-02T01:26:31.057Z,99773.43
2023-03-02T01:29:02.166Z,99802.70
2023-03-02T01:31:33.635Z,99801.81
2023-03-02T01:34:04.502Z,99790.73
2023-03-02T01:36:35.646Z,99790.43
2023-03-02T01:39:06.591Z,99789.25
2023-03-02T01:41:37.324Z,99781.95
2023-03-02T01:44:11.104Z,99759.54
2023-03-02T01:46:41.957Z,99772.30
2023-03-02T01:49:16.420Z,99771.02
2023-03-02T01:51:49.983Z,99762.02
2023-03-02T01:54:24.015Z,99755.52
2023-03-02T01:56:59.237Z,99747.36
2023-03-02T01:59:32.872Z,99752.59
2023-03-02T02:02:07.199Z,99756.13
2023-03-02T02:04:41.322Z,99746.47
2023-03-02T02:07:12.651Z,99741.91
2023-03-02T02:09:48.061Z,99739.39
2023-03-02T02:12:21.354Z,99743.33
2023-03-02T02:14:52.738Z,99740.98
2023-03-02T02:17:23.595Z,99742.20
2023-03-02T02:20:07.205Z,99736.76
2023-03-02T02:22:49.177Z,99736.76
2023-03-02T02:25:34.158Z,99734.52
2023-03-02T02:28:09.654Z,99735.96
2023-03-02T02:30:43.356Z,99736.98
2023-03-02T02:33:20.752Z,99734.46
2023-03-02T02:35:54.056Z,99732.55
2023-03-02T02:38:26.067Z,99733.68
2023-03-02T02:40:59.656Z,99734.35
2023-03-02T02:43:33.535Z,99720.44
2023-03-02T02:46:05.051Z,99725.39
2023-03-02T02:48:36.413Z,99728.39
2023-03-02T02:51:10.400Z,99727.71
2023-03-02T02:53:43.914Z,99724.80
2023-03-02T02:56:16.627Z,99726.82
2023-03-02T02:58:51.787Z,99725.82
2023-03-02T03:01:26.295Z,99722.91
2023-03-02T03:04:02.067Z,99721.30
2023-03-02T03:06:38.514Z,99722.27
2023-03-02T03:09:10.868Z,99723.00
2023-03-02T03:11:44.948Z,99724.18
2023-03-02T03:14:17.613Z,99718.58
2023-03-02T03:16:50.762Z,99722.61
2023-03-02T03:19:24.350Z,99726.21
2023-03-02T03:21:57.481Z,99722.73
2023-03-02T03:24:29.858Z,99721.66
2023-03-02T03:27:02.038Z,99719.59
2023-03-02T03:29:34.281Z,99723.57
2023-03-02T03:32:06.952Z,99724.70
2023-03-02T03:34:41.054Z,99722.67
2023-03-02T03:37:13.899Z,99723.29
2023-03-02T03:39:45.549Z,99718.69
2023-03-02T03:42:16.720Z,99723.86
2023-03-02T03:44:47.664Z,99725.46
2023-03-02T03:47:18.400Z,99728.95
2023-03-02T03:49:49.350Z,99730.80
2023-03-02T03:52:30.516Z,99726.77
2023-03-02T03:55:02.796Z,99724.52
2023-03-02T03:57:33.480Z,99724.92
2023-03-02T04:00:06.306Z,99725.23
2023-03-02T04:02:37.141Z,99725.62
2023-03-02T04:05:09.343Z,99724.33
2023-03-02T04:07:41.436Z,99725.80
2023-03-02T04:10:14.287Z,99725.85
2023-03-02T04:12:45.621Z,99720.02
2023-03-02T04:15:18.710Z,99711.78
2023-03-02T04:17:50.171Z,99718.11
2023-03-02T04:20:22.724Z,99715.59
2023-03-02T04:22:55.740Z,99712.90
2023-03-02T04:25:29.558Z,99716.38
2023-03-02T04:28:00.382Z,99712.27
2023-03-02T04:30:33.331Z,99707.23
2023-03-02T04:33:04.357Z,99709.08
2023-03-02T04:35:35.109Z,99704.27
2023-03-02T04:38:06.107Z,99707.09
2023-03-02T04:40:36.946Z,99694.27
2023-03-02T04:43:07.636Z,99703.56
2023-03-02T04:45:38.443Z,99699.41
2023-03-02T04:48:10.085Z,99699.98
2023-03-02T04:50:41.043Z,99699.53
2023-03-02T04:53:12.425Z,99698.35
2023-03-02T04:55:43.534Z,99700.75
2023-03-02T04:58:14.265Z,99703.52
2023-03-02T05:00:45.145Z,99703.85
2023-03-02T05:03:15.945Z,99703.73
2023-03-02T05:05:46.657Z,99701.33
2023-03-02T05:08:17.783Z,99704.66
2023-03-02T05:10:48.816Z,99706.54
2023-03-02T05:13:20.287Z,99709.04
2023-03-02T05:15:51.859Z,99708.88
2023-03-02T05:18:23.339Z,99708.56
2023-03-02T05:20:54.753Z,99706.71
2023-03-02T05:23:27.150Z,99711.52
2023-03-02T05:25:58.913Z,99708.29
2023-03-02T05:28:30.076Z,99701.69
2023-03-02T05:31:01.266Z,99706.61
2023-03-02T05:33:32.338Z,99707.29
2023-03-02T05:36:03.152Z,99713.11
2023-03-02T05:38:34.634Z,99710.48
2023-03-02T05:41:06.391Z,99705.39
2023-03-02T05:43:37.308Z,99703.47
2023-03-02T05:46:08.153Z,99701.67
2023-03-02T05:48:39.160Z,99710.44
2023-03-02T05:51:10.512Z,99712.73
2023-03-02T05:53:41.326Z,99714.02
2023-03-02T05:56:12.470Z,99710.45
2023-03-02T05:58:43.222Z,99684.80
2023-03-02T06:01:15.583Z,99713.80
2023-03-02T06:03:46.429Z,99719.64
2023-03-02T06:06:18.092Z,99720.88
2023-03-02T06:08:48.722Z,99722.50
2023-03-02T06:11:19.507Z,99720.82
2023-03-02T06:13:50.310Z,99725.45
2023-03-02T06:16:21.110Z,99730.05
2023-03-02T06:18:52.102Z,99727.63
2023-03-02T06:21:22.832Z,99719.77
2023-03-02T06:23:54.179Z,99725.27
2023-03-02T06:26:25.106Z,99729.23
2023-03-02T06:28:56.182Z,99728.73
2023-03-02T06:31:27.336Z,99725.25
2023-03-02T06:33:58.061Z,99724.90
2023-03-02T06:36:29.409Z,99723.09
2023-03-02T06:39:00.152Z,99723.20
2023-03-02T06:41:31.167Z,99722.64
2023-03-02T06:44:02.233Z,99719.08
2023-03-02T06:46:33.242Z,99720.98
2023-03-02T06:49:04.859Z,99722.67
2023-03-02T06:51:36.585Z,99720.36
2023-03-02T06:54:08.969Z,99721.66
2023-03-02T06:56:41.075Z,99722.61
2023-03-02T06:59:11.878Z,99718.79
2023-03-02T07:01:43.223Z,99713.99
2023-03-02T07:04:14.239Z,99717.65
2023-03-02T07:06:44.989Z,99719.80
2023-03-02T07:09:15.949Z,99716.17
2023-03-02T07:11:49.455Z,99710.90
2023-03-02T07:14:20.821Z,99712.41
2023-03-02T07:16:52.279Z,99716.38
2023-03-02T07:19:23.303Z,99716.48
2023-03-02T07:21:53.961Z,99709.60
2023-03-02T07:24:24.777Z,99713.23
2023-03-02T07:26:55.360Z,99710.45
2023-03-02T07:29:26.261Z,99707.14
2023-03-02T07:31:57.515Z,99708.27
2023-03-02T07:34:28.957Z,99710.86
2023-03-02T07:36:59.691Z,99711.09
2023-03-02T07:39:30.429Z,99708.34
2023-03-02T07:42:04.516Z,99706.23
2023-03-02T07:44:35.895Z,99713.90
2023-03-02T07:47:06.839Z,99712.61
2023-03-02T07:49:37.525Z,99712.16
2023-03-02T07:52:08.623Z,99710.71
2023-03-02T07:54:39.903Z,99704.69
2023-03-02T07:57:11.022Z,99712.17
2023-03-02T07:59:41.862Z,99714.61
2023-03-02T08:02:16.472Z,99712.67
2023-03-02T08:04:47.219Z,99704.55
2023-03-02T08:07:18.176Z,99676.85
2023-03-02T08:09:49.114Z,99711.27
2023-03-02T08:12:19.805Z,99709.75
2023-03-02T08:14:51.479Z,99708.86
2023-03-02T08:17:22.347Z,99709.93
2023-03-02T08:19:53.166Z,99701.29
2023-03-02T08:22:24.433Z,99709.11
2023-03-02T08:24:55.391Z,99713.27
2023-03-02T08:27:26.286Z,99714.74
2023-03-02T08:29:57.917Z,99707.92
2023-03-02T08:32:30.017Z,99708.81
2023-03-02T08:35:01.136Z,99713.13
2023-03-02T08:37:31.867Z,99710.66
2023-03-02T08:40:02.912Z,99710.59
2023-03-02T08:42:34.121Z,99708.45
2023-03-02T08:45:05.469Z,99708.97
2023-03-02T08:47:36.468Z,99681.88
2023-03-02T08:50:08.024Z,99706.39
2023-03-02T08:52:38.699Z,99702.30
2023-03-02T08:55:12.111Z,99698.09
2023-03-02T08:57:43.219Z,99694.71
2023-03-02T09:00:16.615Z,99690.96
2023-03-02T09:02:47.396Z,99694.77
2023-03-02T09:05:18.344Z,99691.42
2023-03-02T09:07:49.275Z,99692.69
2023-03-02T09:10:20.787Z,99689.61
2023-03-02T09:12:52.590Z,99688.71
2023-03-02T09:15:23.332Z,99687.82
2023-03-02T09:17:54.272Z,99688.60
2023-03-02T09:20:25.216Z,99690.90
2023-03-02T09:22:56.174Z,99677.17
2023-03-02T09:25:27.286Z,99687.88
2023-03-02T09:27:58.044Z,99692.92
2023-03-02T09:30:29.102Z,99686.85
2023-03-02T09:33:00.244Z,99694.42
2023-03-02T09:35:31.430Z,99693.86
2023-03-02T09:38:02.403Z,99695.09
2023-03-02T09:40:39.729Z,99694.48
2023-03-02T09:43:29.851Z,99693.80
2023-03-02T09:46:15.126Z,99692.45
2023-03-02T09:48:56.117Z,99688.82
2023-03-02T09:51:37.354Z,99686.80
2023-03-02T09:54:13.154Z,99690.89
2023-03-02T09:56:48.151Z,99689.60
2023-03-02T09:59:25.765Z,99682.64
2023-03-02T10:02:01.465Z,99680.69
2023-03-02T10:04:38.852Z,99675.30
2023-03-02T10:07:17.579Z,99674.23
2023-03-02T10:09:48.848Z,99671.70
2023-03-02T10:12:43.910Z,99672.04
2023-03-02T10:15:20.674Z,99668.56
2023-03-02T10:18:02.083Z,99664.63
2023-03-02T10:20:38.113Z,99658.85
2023-03-02T10:23:23.085Z,99653.59
2023-03-02T10:26:01.149Z,99656.95
2023-03-02T10:28:39.839Z,99654.98
2023-03-02T10:31:15.537Z,99652.05
2023-03-02T10:33:46.283Z,99642.59
2023-03-02T10:36:24.037Z,99647.19
2023-03-02T10:38:56.626Z,99643.04
2023-03-02T10:41:32.685Z,99642.81
2023-03-02T10:44:07.571Z,99635.96
2023-03-02T10:46:46.353Z,99634.23
2023-03-02T10:49:30.718Z,99633.84
2023-03-02T10:52:04.782Z,99603.84
2023-03-02T10:54:34.689Z,99626.03
2023-03-02T10:57:21.024Z,99628.20
2023-03-02T10:59:53.325Z,99624.70
2023-03-02T11:02:27.237Z,99626.50
2023-03-02T11:05:00.043Z,99622.46
2023-03-02T11:07:31.664Z,99618.87
2023-03-02T11:10:09.558Z,99610.89
2023-03-02T11:12:46.599Z,99613.84
2023-03-02T11:15:42.217Z,99604.30
2023-03-02T11:18:28.853Z,99602.78
2023-03-02T11:21:03.334Z,99567.79
2023-03-02T11:23:42.291Z,99594.98
2023-03-02T11:26:22.196Z,99597.56
2023-03-02T11:29:01.863Z,99593.97
2023-03-02T11:31:40.428Z,99592.63
2023-03-02T11:34:23.707Z,99588.08
2023-03-02T11:37:03.466Z,99583.98
2023-03-02T11:39:50.030Z,99587.52
2023-03-02T11:42:31.339Z,99582.92
2023-03-02T11:45:09.994Z,99576.52
2023-03-02T11:47:43.259Z,99575.12
2023-03-02T11:50:17.423Z,99572.48
2023-03-02T11:52:52.817Z,99567.33
2023-03-02T11:55:26.263Z,99564.19
2023-03-02T12:00:40.288Z,99560.15
2023-03-02T12:03:24.784Z,99551.92
2023-03-02T12:06:07.460Z,99550.09
2023-03-02T12:08:41.952Z,99544.52
2023-03-02T12:11:34.842Z,99546.60
2023-03-02T12:14:07.701Z,99547.43
2023-03-02T12:16:41.330Z,99543.89
2023-03-02T12:19:26.459Z,99539.90
2023-03-02T12:22:05.413Z,99538.49
2023-03-02T12:24:38.502Z,99535.58
2023-03-02T12:27:25.738Z,99535.57
2023-03-02T12:30:11.060Z,99532.83
2023-03-02T12:32:42.048Z,99524.65
2023-03-02T12:35:17.059Z,99522.13
2023-03-02T12:37:51.948Z,99516.17
2023-03-02T12:40:41.480Z,99513.05
2023-03-02T12:43:36.069Z,99508.39
2023-03-02T12:46:28.981Z,99502.55
2023-03-02T12:49:27.233Z,99498.73
2023-03-02T12:52:00.399Z,99492.07
2023-03-02T12:54:33.608Z,99490.10
2023-03-02T12:57:15.537Z,99482.13
2023-03-02T12:59:52.101Z,99472.27
2023-03-02T13:02:24.799Z,99471.36
2023-03-02T13:05:00.664Z,99468.11
2023-03-02T13:07:36.704Z,99466.37
2023-03-02T13:10:21.878Z,99465.23
2023-03-02T13:12:52.709Z,99459.45
2023-03-02T13:15:23.654Z,99462.85
2023-03-02T13:17:59.207Z,99457.17
2023-03-02T13:20:31.263Z,99454.80
2023-03-02T13:23:02.412Z,99450.27
2023-03-02T13:25:33.960Z,99448.23
2023-03-02T13:28:07.692Z,99443.02
2023-03-02T13:30:47.756Z,99444.39
2023-03-02T13:33:24.929Z,99440.83
2023-03-02T13:35:56.478Z,99437.30
2023-03-02T13:38:32.511Z,99441.16
2023-03-02T13:41:04.043Z,99435.28
2023-03-02T13:43:39.103Z,99429.98
2023-03-02T13:46:29.356Z,99417.95
2023-03-02T13:49:11.031Z,99423.30
2023-03-02T13:51:43.982Z,99423.80
2023-03-02T13:54:23.624Z,99420.43
2023-03-02T13:56:55.172Z,99418.59
2023-03-02T13:59:26.508Z,99413.31
2023-03-02T14:01:57.264Z,99414.66
2023-03-02T14:04:28.384Z,99406.98
2023-03-02T14:06:59.252Z,99402.27
2023-03-02T14:09:30.164Z,99400.20
2023-03-02T14:12:01.435Z,99396.36
2023-03-02T14:14:37.125Z,99398.05
2023-03-02T14:17:16.730Z,99393.48
2023-03-02T14:19:52.601Z,99388.77
2023-03-02T14:22:24.866Z,99384.19
2023-03-02T14:24:55.904Z,99382.88
2023-03-02T14:27:30.673Z,99381.92
2023-03-02T14:30:02.103Z,99378.18
2023-03-02T14:32:32.936Z,99375.27
2023-03-02T14:35:04.132Z,99372.13
2023-03-02T14:37:35.133Z,99366.69
2023-03-02T14:40:07.860Z,99366.98
2023-03-02T14:42:38.528Z,99362.31
2023-03-02T14:45:13.424Z,99360.30
2023-03-02T14:47:44.402Z,99361.21
2023-03-02T14:50:16.554Z,99358.91
2023-03-02T14:52:49.739Z,99356.39
2023-03-02T14:55:26.413Z,99354.44
2023-03-02T14:58:00.173Z,99354.04
2023-03-02T15:00:31.316Z,99353.34
2023-03-02T15:03:02.590Z,99350.85
2023-03-02T15:05:33.690Z,99350.35
2023-03-02T15:08:04.745Z,99350.47
2023-03-02T15:10:35.790Z,99349.75
2023-03-02T15:13:06.936Z,99346.17
2023-03-02T15:15:37.850Z,99344.83
2023-03-02T15:18:09.147Z,99345.38
2023-03-02T15:20:40.694Z,99341.73
2023-03-02T15:23:11.650Z,99344.20
2023-03-02T15:25:43.191Z,99343.27
2023-03-02T15:28:14.019Z,99344.14
2023-03-02T15:30:45.167Z,99340.65
2023-03-02T15:33:16.212Z,99345.48
2023-03-02T15:35:47.055Z,99346.21
2023-03-02T15:38:18.124Z,99346.70
2023-03-02T15:40:49.187Z,99339.64
2023-03-02T15:43:20.091Z,99348.61
2023-03-02T15:45:51.273Z,99344.70
2023-03-02T15:48:22.373Z,99347.28
2023-03-02T15:51:00.624Z,99348.69
2023-03-02T15:53:36.712Z,99348.75
2023-03-02T15:56:10.379Z,99346.27
2023-03-02T15:58:41.614Z,99345.61
2023-03-02T16:01:15.982Z,99346.16
2023-03-02T16:03:47.159Z,99343.47
2023-03-02T16:06:18.003Z,99340.83
2023-03-02T16:08:49.165Z,99340.77
2023-03-02T16:11:23.444Z,99344.59
2023-03-02T16:13:54.671Z,99341.77
2023-03-02T16:16:26.445Z,99338.85
2023-03-02T16:18:58.410Z,99339.34
2023-03-02T16:21:29.901Z,99339.06
2023-03-02T16:24:04.027Z,99336.42
2023-03-02T16:26:36.570Z,99338.21
2023-03-02T16:29:09.182Z,99331.19
2023-03-02T16:31:40.904Z,99338.84
2023-03-02T16:34:12.336Z,99336.83
2023-03-02T16:36:44.574Z,99340.46
2023-03-02T16:39:15.887Z,99343.48
2023-03-02T16:41:47.197Z,99344.91
2023-03-02T16:44:18.105Z,99344.78
2023-03-02T16:46:49.101Z,99348.01
2023-03-02T16:49:19.912Z,99337.92
2023-03-02T16:51:50.792Z,99341.27
2023-03-02T16:54:22.076Z,99342.61
2023-03-02T16:56:53.069Z,99340.63
2023-03-02T16:59:24.099Z,99343.31
2023-03-02T17:01:55.994Z,99343.76
2023-03-02T17:04:26.846Z,99344.24
2023-03-02T17:07:00.852Z,99341.45
2023-03-02T17:09:32.529Z,99345.45
2023-03-02T17:12:03.674Z,99345.14
2023-03-02T17:14:34.943Z,99348.88
2023-03-02T17:17:05.994Z,99349.80
2023-03-02T17:19:37.248Z,99351.27
2023-03-02T17:22:08.415Z,99351.72
2023-03-02T17:24:39.692Z,99354.27
2023-03-02T17:27:24.044Z,99357.68
2023-03-02T17:29:56.769Z,99354.36
2023-03-02T17:32:27.846Z,99357.91
2023-03-02T17:34:59.389Z,99358.48
2023-03-02T17:37:30.752Z,99362.23
2023-03-02T17:40:01.775Z,99361.80
2023-03-02T17:42:33.253Z,99362.40
2023-03-02T17:45:04.452Z,99362.36
2023-03-02T17:47:35.818Z,99361.99
2023-03-02T17:50:10.255Z,99365.52
2023-03-02T17:52:41.489Z,99360.27
2023-03-02T17:55:14.160Z,99358.73
2023-03-02T17:57:45.277Z,99333.25
2023-03-02T18:00:21.617Z,99360.52
2023-03-02T18:02:54.118Z,99359.30
2023-03-02T18:05:26.142Z,99352.44
2023-03-02T18:07:57.902Z,99361.86
2023-03-02T18:10:30.858Z,99360.84
2023-03-02T18:13:03.051Z,99359.06
2023-03-02T18:15:34.818Z,99357.45
2023-03-02T18:18:06.518Z,99358.02
2023-03-02T18:20:38.381Z,99356.45
2023-03-02T18:23:10.432Z,99361.17
2023-03-02T18:25:41.819Z,99361.78
2023-03-02T18:28:13.628Z,99360.45
2023-03-02T18:30:45.794Z,99361.59
2023-03-02T18:33:16.920Z,99362.26
2023-03-02T18:35:48.481Z,99344.45
2023-03-02T18:38:19.848Z,99363.27
2023-03-02T18:40:51.319Z,99359.81
2023-03-02T18:43:23.200Z,99363.17
2023-03-02T18:45:57.498Z,99360.67
2023-03-02T18:48:28.925Z,99363.05
2023-03-02T18:51:01.843Z,99363.08
2023-03-02T18:53:33.234Z,99354.95
2023-03-02T18:56:05.492Z,99362.92
2023-03-02T18:58:37.078Z,99367.48
2023-03-02T19:01:09.933Z,99366.60
2023-03-02T19:03:46.148Z,99366.92
2023-03-02T19:06:20.842Z,99369.30
2023-03-02T19:08:53.241Z,99371.98
2023-03-02T19:11:26.007Z,99374.48
2023-03-02T19:13:59.047Z,99346.92
2023-03-02T19:16:31.302Z,99376.05
2023-03-02T19:19:03.564Z,99383.60
2023-03-02T19:21:35.859Z,99387.40
2023-03-02T19:24:08.182Z,99384.14
2023-03-02T19:26:39.225Z,99383.46
2023-03-02T19:29:10.396Z,99382.80
2023-03-02T19:31:42.410Z,99380.46
2023-03-02T19:34:13.531Z,99380.95
2023-03-02T19:36:44.765Z,99379.30
2023-03-02T19:39:15.855Z,99380.75
2023-03-02T19:41:46.911Z,99380.90
2023-03-02T19:44:18.032Z,99384.30
2023-03-02T19:46:50.009Z,99387.33
2023-03-02T19:49:20.883Z,99390.98
2023-03-02T19:51:52.390Z,99393.80
2023-03-02T19:54:23.427Z,99400.90
2023-03-02T19:56:54.597Z,99401.45
2023-03-02T19:59:28.035Z,99404.94
2023-03-02T20:01:59.641Z,99403.00
2023-03-02T20:04:30.681Z,99406.17
2023-03-02T20:07:02.927Z,99405.88
2023-03-02T20:09:34.004Z,99410.74
2023-03-02T20:12:06.197Z,99410.77
2023-03-02T20:14:38.705Z,99414.41
2023-03-02T20:17:09.891Z,99415.15
2023-03-02T20:19:40.851Z,99415.91
2023-03-02T20:22:12.325Z,99417.37
2023-03-02T20:24:44.154Z,99419.77
2023-03-02T20:27:15.517Z,99420.79
2023-03-02T20:29:46.840Z,99421.83
2023-03-02T20:32:18.621Z,99421.39
2023-03-02T20:34:49.522Z,99419.52
2023-03-02T20:37:22.657Z,99413.92
2023-03-02T20:39:53.726Z,99411.27
2023-03-02T20:42:25.005Z,99413.68
2023-03-02T20:44:57.167Z,99413.33
2023-03-02T20:47:28.270Z,99410.66
2023-03-02T20:49:59.994Z,99412.29
2023-03-02T20:52:31.106Z,99414.96
2023-03-02T20:55:02.122Z,99418.16
2023-03-02T20:57:33.291Z,99417.79
2023-03-02T21:00:05.808Z,99418.72
2023-03-02T21:02:37.121Z,99415.36
2023-03-02T21:05:09.036Z,99414.61
2023-03-02T21:07:39.908Z,99411.55
2023-03-02T21:10:15.924Z,99413.50
2023-03-02T21:12:49.141Z,99405.64
2023-03-02T21:15:23.936Z,99407.12
2023-03-02T21:17:55.240Z,99409.69
2023-03-02T21:20:28.982Z,99407.65
2023-03-02T21:23:00.643Z,99408.48
2023-03-02T21:25:31.773Z,99409.95
2023-03-02T21:28:03.099Z,99406.17
2023-03-02T21:30:35.977Z,99404.26
2023-03-02T21:33:07.385Z,99403.42
2023-03-02T21:35:38.324Z,99403.39
2023-03-02T21:38:09.755Z,99407.63
2023-03-02T21:40:46.073Z,99402.23
2023-03-02T21:43:18.549Z,99399.30
2023-03-02T21:45:49.620Z,99394.70
2023-03-02T21:48:22.946Z,99399.48
2023-03-02T21:50:54.492Z,99398.86
2023-03-02T21:53:25.411Z,99397.02
2023-03-02T21:55:56.269Z,99401.61
2023-03-02T21:58:27.310Z,99404.94
2023-03-02T22:00:58.238Z,99400.84
2023-03-02T22:03:29.305Z,99394.71
2023-03-02T22:06:00.227Z,99397.77
2023-03-02T22:08:31.627Z,99400.69
2023-03-02T22:11:02.628Z,99396.27
2023-03-02T22:13:35.539Z,99396.21
2023-03-02T22:16:15.516Z,99400.36
2023-03-02T22:18:47.575Z,99400.23
2023-03-02T22:21:28.925Z,99401.20
2023-03-02T22:24:10.992Z,99400.86
2023-03-02T22:26:44.197Z,99398.97
2023-03-02T22:29:19.046Z,99392.83
2023-03-02T22:31:51.879Z,99389.59
2023-03-02T22:34:27.076Z,99390.18
2023-03-02T22:37:03.886Z,99388.99
2023-03-02T22:39:36.060Z,99394.75
2023-03-02T22:42:14.393Z,99397.30
2023-03-02T22:44:45.410Z,99401.00
2023-03-02T22:47:19.406Z,99400.31
2023-03-02T22:49:58.304Z,99393.14
2023-03-02T22:52:39.448Z,99392.57
2023-03-02T22:55:32.100Z,99388.20
2023-03-02T22:58:17.412Z,99386.73
2023-03-02T23:00:49.125Z,99384.70
2023-03-02T23:03:21.911Z,99381.39
2023-03-02T23:05:54.101Z,99386.20
2023-03-02T23:08:28.281Z,99387.20
2023-03-02T23:11:00.519Z,99389.31
2023-03-02T23:13:40.449Z,99388.23
2023-03-02T23:16:15.778Z,99386.44
2023-03-02T23:18:48.003Z,99386.52
2023-03-02T23:21:28.560Z,99383.52
2023-03-02T23:23:59.427Z,99382.23
2023-03-02T23:26:30.270Z,99379.02
2023-03-02T23:29:01.306Z,99372.32
2023-03-02T23:31:32.591Z,99368.60
2023-03-02T23:34:03.948Z,99372.23
2023-03-02T23:36:34.968Z,99369.89
2023-03-02T23:39:06.067Z,99371.45
2023-03-02T23:41:38.633Z,99368.64
2023-03-02T23:44:10.467Z,99364.53
2023-03-02T23:46:41.132Z,99346.27
2023-03-02T23:49:11.874Z,99366.44
2023-03-02T23:51:43.643Z,99365.02
2023-03-02T23:54:14.956Z,99360.19
2023-03-02T23:56:45.928Z,99361.50
2023-03-02T23:59:16.769Z,99364.69
